Nearby METAR Reports

 

KPBI - West Palm Beach, Florida, USA
Distance from station: NNE 9mi, 14km
Updated: Wed, 23-Sep-2020 5:53am EDT
Partly cloudy
Partly cloudy
 Wind from ENE
Wind: ENE 10 mph , 17 km/h
Temperature: 79°F , 26°C
Dew Point: 64°F , 18°C
Humidity: 61%
Barometer: 29.98 inHg , 1015.2 hPa
Clouds: Partly cloudy
Visibility: 10 miles , 16 km
Cloud details: Partly cloudy 4200 ft
Partly cloudy 6000 ft
2020/09/23 09:53 KPBI 230953Z 07009KT 10SM SCT042 SCT060 26/18 A2998 RMK AO2 SLP150 T02610183
KBCT - Boca Raton, Florida, USA
Distance from station: SSE 13mi, 21km
Updated: Tue, 22-Sep-2020 10:47pm EDT
NOT Current
Partly cloudy
Partly cloudy
 Wind from ENE
Wind: ENE 16 mph , 26 km/h
Temperature: 81°F , 27°C
Heat Index: 83°F , 28°C
Dew Point: 66°F , 19°C
Humidity: 62%
Barometer: 30.00 inHg , 1015.9 hPa
Clouds: Partly cloudy
Visibility: 10 miles , 16 km
Cloud details: Partly cloudy 3600 ft
2020/09/23 02:47 KBCT 230247Z 07014KT 10SM SCT036 27/19 A3000
 
KPMP - Pompano Beach, Florida, USA
Distance from station: S 22mi, 36km
Updated: Wed, 23-Sep-2020 5:53am EDT
Few Clouds
Few Clouds
 Wind from ENE
Wind: ENE 8 mph , 13 km/h
Temperature: 79°F , 26°C
Dew Point: 63°F , 17°C
Humidity: 58%
Barometer: 29.96 inHg , 1014.6 hPa
Clouds: Few Clouds
Visibility: 10 miles , 16 km
Cloud details: Few Clouds 4900 ft
2020/09/23 09:53 KPMP 230953Z AUTO 07007KT 10SM FEW049 26/17 A2996 RMK AO2 SLP147 T02610172
KFXE - Ft Lauderd/Exec, Florida, USA
Distance from station: S 25mi, 41km
Updated: Wed, 23-Sep-2020 5:53am EDT
Few Clouds
Few Clouds
 Wind from ENE
Wind: ENE 8 mph , 13 km/h
Temperature: 79°F , 26°C
Dew Point: 63°F , 17°C
Humidity: 58%
Barometer: 29.96 inHg , 1014.6 hPa
Clouds: Few Clouds
Visibility: 10 miles , 16 km
Cloud details: Few Clouds 4600 ft
2020/09/23 09:53 KFXE 230953Z 07007KT 10SM FEW046 26/17 A2996 RMK AO2 SLP148 T02560172
 
KFLL - Ft Lauderd/Holly, Florida, USA
Distance from station: S 35mi, 56km
Updated: Wed, 23-Sep-2020 5:53am EDT
Mostly cloudy
Mostly cloudy
 Wind from E
Wind: E 7 mph , 11 km/h
Temperature: 81°F , 27°C
Heat Index: 83°F , 28°C
Dew Point: 64°F , 18°C
Humidity: 58%
Barometer: 29.95 inHg , 1014.2 hPa
Clouds: Mostly cloudy
Visibility: 10 miles , 16 km
Cloud details: Partly cloudy 6000 ft
Mostly cloudy 7000 ft
2020/09/23 09:53 KFLL 230953Z 08006KT 10SM SCT060 BKN070 27/18 A2995 RMK AO2 SLP142 T02670178
KHWO - Hollywood, Florida, USA
Distance from station: S 39mi, 64km
Updated: Wed, 23-Sep-2020 5:53am EDT
Overcast
Overcast
 Wind from NE
Wind: NE 5 mph , 7 km/h
Temperature: 79°F , 26°C
Dew Point: 64°F , 18°C
Humidity: 61%
Barometer: 29.98 inHg , 1015.2 hPa
Clouds: Overcast
Visibility: 10 miles , 16 km
Cloud details: Overcast 6500 ft
2020/09/23 09:53 KHWO 230953Z AUTO 05004KT 10SM OVC065 26/18 A2998 RMK AO2 SLP150 T02560183 PWINO
 
KSUA - Stuart/Witham, Florida, USA
Distance from station: N 43mi, 69km
Updated: Wed, 23-Sep-2020 6:15am EDT
Partly cloudy
Partly cloudy
 Wind from E
Wind: E 10 mph , 17 km/h
Temperature: 79°F , 26°C
Dew Point: 63°F , 17°C
Humidity: 58%
Barometer: 29.99 inHg , 1015.6 hPa
Clouds: Partly cloudy
Visibility: 10 miles , 16 km
Cloud details: Partly cloudy 5000 ft
Partly cloudy 6500 ft
2020/09/23 10:15 KSUA 231015Z AUTO 09009KT 10SM SCT050 SCT065 26/17 A2999 RMK AO2
KOPF - Miami/Opa Locka, Florida, USA
Distance from station: S 46mi, 73km
Updated: Wed, 23-Sep-2020 5:53am EDT
Overcast
Overcast
 Wind from NE
Wind: NE 3 mph , 6 km/h
Temperature: 75°F , 24°C
Dew Point: 63°F , 17°C
Humidity: 65%
Barometer: 29.97 inHg , 1014.9 hPa
Clouds: Overcast
Visibility: 10 miles , 16 km
Cloud details: Overcast 6500 ft
2020/09/23 09:53 KOPF 230953Z AUTO 04003KT 10SM OVC065 24/17 A2997 RMK AO2 SLP148 T02440172
 
KMIA - Miami, Florida, USA
Distance from station: S 54mi, 86km
Updated: Wed, 23-Sep-2020 5:53am EDT
Mostly cloudy
Mostly cloudy
 Wind from NNE
Wind: NNE 3 mph , 6 km/h
Temperature: 79°F , 26°C
Dew Point: 64°F , 18°C
Humidity: 61%
Barometer: 29.96 inHg , 1014.6 hPa
Clouds: Mostly cloudy
Visibility: 10 miles , 16 km
Cloud details: Partly cloudy 4000 ft
Mostly cloudy 6500 ft
2020/09/23 09:53 KMIA 230953Z 03003KT 10SM SCT040 BKN065 26/18 A2996 RMK AO2 SLP145 T02610178 $
KOBE - Okeechobee Cty, Florida, USA
Distance from station: NW 64mi, 104km
Updated: Tue, 22-Sep-2020 1:35pm EDT
NOT Current
Mostly cloudy
Mostly cloudy
 Wind from ENE
Wind: ENE 5 mph , 7 km/h, Gust: 18 mph , 30 km/h
Temperature: 84°F , 29°C
Heat Index: 85°F , 29°C
Dew Point: 64°F , 18°C
Humidity: 51%
Barometer: 30.04 inHg , 1017.3 hPa
Clouds: Mostly cloudy
Visibility: 10 miles , 16 km
Cloud details: Mostly cloudy 6500 ft
2020/09/22 17:35 KOBE 221735Z AUTO 07004G16KT 10SM BKN065 29/18 A3004 RMK AO2
 
KFPR - Fort Pierce, Florida, USA
Distance from station: NNW 66mi, 106km
Updated: Wed, 23-Sep-2020 5:53am EDT
Clear
Clear
 Wind from E
Wind: E 5 mph , 7 km/h
Temperature: 73°F , 23°C
Dew Point: 63°F , 17°C
Humidity: 69%
Barometer: 29.98 inHg , 1015.2 hPa
Clouds: Clear
Visibility: 10 miles , 16 km
2020/09/23 09:53 KFPR 230953Z AUTO 08004KT 10SM CLR 23/17 A2998 RMK AO2 SLP151 T02330172
KTMB - Miami/Tamiami, Florida, USA
Distance from station: SSW 66mi, 106km
Updated: Wed, 23-Sep-2020 5:53am EDT
Partly cloudy
Partly cloudy
 Wind from N
Wind: N 5 mph , 7 km/h
Temperature: 75°F , 24°C
Dew Point: 66°F , 19°C
Humidity: 74%
Barometer: 29.96 inHg , 1014.6 hPa
Clouds: Partly cloudy
Visibility: 10 miles , 16 km
Cloud details: Partly cloudy 6500 ft
2020/09/23 09:53 KTMB 230953Z AUTO 01004KT 10SM SCT065 24/19 A2996 RMK AO2 SLP143 T02440194
 
KVRB - Vero Beach, Florida, USA
Distance from station: NNW 76mi, 123km
Updated: Wed, 23-Sep-2020 5:53am EDT
Few Clouds
Few Clouds
 Wind from E
Wind: E 7 mph , 11 km/h
Temperature: 77°F , 25°C
Dew Point: 57°F , 14°C
Humidity: 51%
Barometer: 29.98 inHg , 1015.2 hPa
Clouds: Few Clouds
Visibility: 10 miles , 16 km
Cloud details: Few Clouds 600 ft
2020/09/23 09:53 KVRB 230953Z AUTO 10006KT 10SM FEW006 25/14 A2998 RMK AO2 SLP150 T02500144
KHST - Homestead Afb, Florida, USA
Distance from station: S 77mi, 124km
Updated: Wed, 23-Sep-2020 5:56am EDT
Overcast
Overcast
 Wind from ENE
Wind: ENE 8 mph , 13 km/h
Temperature: 79°F , 26°C
Dew Point: 66°F , 19°C
Humidity: 65%
Barometer: 29.94 inHg , 1013.9 hPa
Clouds: Overcast
Visibility: 10 miles , 16 km
Cloud details: Overcast 7000 ft
2020/09/23 09:56 KHST 230956Z AUTO 06007KT 10SM OVC070 26/19 A2994 RMK AO2 SLP142 T02600194
 
KIMM - Immokalee, Florida, USA
Distance from station: W 77mi, 124km
Updated: Wed, 23-Sep-2020 6:15am EDT

 Wind from N
Wind: N 3 mph , 6 km/h
Temperature: 66°F , 19°C
Dew Point: 64°F , 18°C
Humidity: 94%
Barometer: 29.97 inHg , 1014.9 hPa
Visibility: 10 miles , 16 km
2020/09/23 10:15 KIMM 231015Z AUTO 01003KT 10SM 19/18 A2997 RMK AO2 PWINO
MYGF - Freeport Intl A, Bahamas
Distance from station: E 90mi, 145km
Updated: Tue, 22-Sep-2020 8:00pm EDT
NOT Current
Mostly cloudy
Mostly cloudy
 Wind from NE
Wind: NE 13 mph , 20 km/h
Temperature: 79°F , 26°C
Dew Point: 70°F , 21°C
Humidity: 74%
Barometer: 29.99 inHg , 1015.6 hPa
Clouds: Mostly cloudy
Visibility: 6 miles , 10 km
Cloud details: Few Clouds 2000 ft
Mostly cloudy 25000 ft
2020/09/23 00:00 MYGF 230000Z 05011KT 9999 FEW020 BKN250 26/21 A2999
 
KSEF - Sebring, Florida, USA
Distance from station: NW 95mi, 153km
Updated: Wed, 23-Sep-2020 5:55am EDT
Mostly cloudy
Mostly cloudy
 Wind from calm
Wind: Calm
Temperature: 70°F , 21°C
Dew Point: 66°F , 19°C
Humidity: 88%
Barometer: 30.00 inHg , 1015.9 hPa
Clouds: Mostly cloudy
Visibility: 10 miles , 16 km
Cloud details: Mostly cloudy 6000 ft
2020/09/23 09:55 KSEF 230955Z AUTO 00000KT 10SM BKN060 21/19 A3000 RMK AO2 LTG DSNT W T02050191
KRSW - Fort Myers, Florida, USA
Distance from station: W 98mi, 158km
Updated: Wed, 23-Sep-2020 5:53am EDT
Clear
Clear
 Wind from ENE
Wind: ENE 6 mph , 9 km/h
Temperature: 70°F , 21°C
Dew Point: 66°F , 19°C
Humidity: 88%
Barometer: 29.98 inHg , 1015.2 hPa
Clouds: Clear
Visibility: 10 miles , 16 km
2020/09/23 09:53 KRSW 230953Z AUTO 06005KT 10SM CLR 21/19 A2998 RMK AO2 SLP148 T02060194